<?xml version="1.0" encoding="UTF-8" standalone="no" ?>
<gpx xmlns="http://www.topografix.com/GPX/1/1" xmlns:xsi="http://www.w3.org/2001/XMLSchema-instance" xsi:schemaLocation="http://www.topografix.com/GPX/1/1 http://www.topografix.com/GPX/1/1/gpx.xsd" version="1.1" creator="VisuGPX - https://www.visugpx.com">
  <metadata>
    <name>MP2025-6km</name>
  </metadata>
  <wpt lat="47.61439" lon="7.21046">
    <ele>300</ele>
    <name><![CDATA[Point de passage 1]]></name>
    <type><![CDATA[GENERIC]]></type>
  </wpt>
  <wpt lat="47.61442" lon="7.21031">
    <ele>301</ele>
    <name><![CDATA[Point de passage 2]]></name>
    <type><![CDATA[GENERIC]]></type>
  </wpt>
  <trk>
    <name><![CDATA[MP2025-6km]]></name>
    <trkseg>
      <trkpt lat="47.61439" lon="7.21046">
        <ele>300</ele>
        <time>2025-04-25T20:41:05.000Z</time>
      </trkpt>
      <trkpt lat="47.61422" lon="7.21038">
        <ele>300</ele>
        <time>2025-04-25T20:41:25.000Z</time>
      </trkpt>
      <trkpt lat="47.6142" lon="7.21078">
        <ele>299</ele>
        <time>2025-04-25T20:41:56.000Z</time>
      </trkpt>
      <trkpt lat="47.61319" lon="7.21003">
        <ele>303</ele>
        <time>2025-04-25T20:44:46.000Z</time>
      </trkpt>
      <trkpt lat="47.61324" lon="7.20971">
        <ele>303</ele>
        <time>2025-04-25T20:45:11.000Z</time>
      </trkpt>
      <trkpt lat="47.61164" lon="7.20876">
        <ele>304</ele>
        <time>2025-04-25T20:48:37.000Z</time>
      </trkpt>
      <trkpt lat="47.61092" lon="7.20516">
        <ele>312</ele>
        <time>2025-04-25T20:54:50.000Z</time>
      </trkpt>
      <trkpt lat="47.61035" lon="7.20319">
        <ele>315</ele>
        <time>2025-04-25T20:58:07.000Z</time>
      </trkpt>
      <trkpt lat="47.60888" lon="7.20054">
        <ele>319</ele>
        <time>2025-04-25T21:03:13.000Z</time>
      </trkpt>
      <trkpt lat="47.60809" lon="7.19941">
        <ele>322</ele>
        <time>2025-04-25T21:05:49.000Z</time>
      </trkpt>
      <trkpt lat="47.60659" lon="7.19784">
        <ele>326</ele>
        <time>2025-04-25T21:10:00.000Z</time>
      </trkpt>
      <trkpt lat="47.60531" lon="7.1965">
        <ele>333</ele>
        <time>2025-04-25T21:14:12.000Z</time>
      </trkpt>
      <trkpt lat="47.60458" lon="7.19507">
        <ele>341</ele>
        <time>2025-04-25T21:17:53.000Z</time>
      </trkpt>
      <trkpt lat="47.60382" lon="7.19128">
        <ele>363</ele>
        <time>2025-04-25T21:26:45.000Z</time>
      </trkpt>
      <trkpt lat="47.60245" lon="7.18597">
        <ele>378</ele>
        <time>2025-04-25T21:36:38.000Z</time>
      </trkpt>
      <trkpt lat="47.60157" lon="7.18056">
        <ele>383</ele>
        <time>2025-04-25T21:44:39.000Z</time>
      </trkpt>
      <trkpt lat="47.60271" lon="7.17986">
        <ele>377</ele>
        <time>2025-04-25T21:47:01.000Z</time>
      </trkpt>
      <trkpt lat="47.6041" lon="7.17938">
        <ele>375</ele>
        <time>2025-04-25T21:49:44.000Z</time>
      </trkpt>
      <trkpt lat="47.60607" lon="7.18042">
        <ele>376</ele>
        <time>2025-04-25T21:53:54.000Z</time>
      </trkpt>
      <trkpt lat="47.61021" lon="7.18466">
        <ele>348</ele>
        <time>2025-04-25T22:03:30.000Z</time>
      </trkpt>
      <trkpt lat="47.61096" lon="7.18885">
        <ele>330</ele>
        <time>2025-04-25T22:09:04.000Z</time>
      </trkpt>
      <trkpt lat="47.61044" lon="7.19021">
        <ele>338</ele>
        <time>2025-04-25T22:12:28.000Z</time>
      </trkpt>
      <trkpt lat="47.61044" lon="7.19242">
        <ele>346</ele>
        <time>2025-04-25T22:16:41.000Z</time>
      </trkpt>
      <trkpt lat="47.61197" lon="7.1952">
        <ele>326</ele>
        <time>2025-04-25T22:21:17.000Z</time>
      </trkpt>
      <trkpt lat="47.61223" lon="7.19666">
        <ele>320</ele>
        <time>2025-04-25T22:23:14.000Z</time>
      </trkpt>
      <trkpt lat="47.61392" lon="7.19983">
        <ele>313</ele>
        <time>2025-04-25T22:28:26.000Z</time>
      </trkpt>
      <trkpt lat="47.61424" lon="7.20189">
        <ele>308</ele>
        <time>2025-04-25T22:31:09.000Z</time>
      </trkpt>
      <trkpt lat="47.61447" lon="7.20309">
        <ele>306</ele>
        <time>2025-04-25T22:32:45.000Z</time>
      </trkpt>
      <trkpt lat="47.61461" lon="7.20527">
        <ele>305</ele>
        <time>2025-04-25T22:35:34.000Z</time>
      </trkpt>
      <trkpt lat="47.61437" lon="7.20702">
        <ele>302</ele>
        <time>2025-04-25T22:37:52.000Z</time>
      </trkpt>
      <trkpt lat="47.61426" lon="7.21021">
        <ele>300</ele>
        <time>2025-04-25T22:41:59.000Z</time>
      </trkpt>
      <trkpt lat="47.61442" lon="7.21031">
        <ele>301</ele>
        <time>2025-04-25T22:42:30.000Z</time>
      </trkpt>
    </trkseg>
  </trk>
</gpx>